sensor_id;sensor_type;location;lat;lon;timestamp;temperature;humidity
4058;DHT22;2044;48.692;9.020;2022-07-24T00:01:10;18.30;99.90
4058;DHT22;2044;48.692;9.020;2022-07-24T00:03:37;18.30;99.90
4058;DHT22;2044;48.692;9.020;2022-07-24T00:06:04;18.30;99.90
4058;DHT22;2044;48.692;9.020;2022-07-24T00:08:31;18.20;99.90
4058;DHT22;2044;48.692;9.020;2022-07-24T00:10:57;18.40;99.90
4058;DHT22;2044;48.692;9.020;2022-07-24T00:13:25;18.30;99.90
4058;DHT22;2044;48.692;9.020;2022-07-24T00:15:52;18.40;99.90
4058;DHT22;2044;48.692;9.020;2022-07-24T00:18:19;18.50;99.90
4058;DHT22;2044;48.692;9.020;2022-07-24T00:20:45;18.40;99.90
4058;DHT22;2044;48.692;9.020;2022-07-24T00:23:12;18.40;99.90
4058;DHT22;2044;48.692;9.020;2022-07-24T00:25:39;18.30;99.90
4058;DHT22;2044;48.692;9.020;2022-07-24T00:28:06;18.30;99.90
4058;DHT22;2044;48.692;9.020;2022-07-24T00:30:34;18.30;99.90
4058;DHT22;2044;48.692;9.020;2022-07-24T00:33:00;18.20;99.90
4058;DHT22;2044;48.692;9.020;2022-07-24T00:35:27;18.10;99.90
4058;DHT22;2044;48.692;9.020;2022-07-24T00:37:54;18.10;99.90
4058;DHT22;2044;48.692;9.020;2022-07-24T00:40:21;18.10;99.90
4058;DHT22;2044;48.692;9.020;2022-07-24T00:42:47;18.10;99.90
4058;DHT22;2044;48.692;9.020;2022-07-24T00:45:14;18.10;99.90
4058;DHT22;2044;48.692;9.020;2022-07-24T00:47:42;18.20;99.90
4058;DHT22;2044;48.692;9.020;2022-07-24T00:50:09;18.20;99.90
4058;DHT22;2044;48.692;9.020;2022-07-24T00:52:36;18.20;99.90
4058;DHT22;2044;48.692;9.020;2022-07-24T00:55:04;18.20;99.90
4058;DHT22;2044;48.692;9.020;2022-07-24T00:57:31;18.10;99.90
4058;DHT22;2044;48.692;9.020;2022-07-24T00:59:58;18.20;99.90
4058;DHT22;2044;48.692;9.020;2022-07-24T01:02:24;18.20;99.90
4058;DHT22;2044;48.692;9.020;2022-07-24T01:04:53;18.20;99.90
4058;DHT22;2044;48.692;9.020;2022-07-24T01:07:19;18.10;99.90
4058;DHT22;2044;48.692;9.020;2022-07-24T01:09:46;18.00;99.90
4058;DHT22;2044;48.692;9.020;2022-07-24T01:12:13;17.90;99.90
4058;DHT22;2044;48.692;9.020;2022-07-24T01:14:40;17.80;99.90
4058;DHT22;2044;48.692;9.020;2022-07-24T01:17:07;17.70;99.90
4058;DHT22;2044;48.692;9.020;2022-07-24T01:19:33;17.60;99.90
4058;DHT22;2044;48.692;9.020;2022-07-24T01:22:01;17.50;99.90
4058;DHT22;2044;48.692;9.020;2022-07-24T01:24:28;17.40;99.90
4058;DHT22;2044;48.692;9.020;2022-07-24T01:26:55;17.40;99.90
4058;DHT22;2044;48.692;9.020;2022-07-24T01:29:22;17.40;99.90
4058;DHT22;2044;48.692;9.020;2022-07-24T01:31:48;17.40;99.90
4058;DHT22;2044;48.692;9.020;2022-07-24T01:34:15;17.30;99.90
4058;DHT22;2044;48.692;9.020;2022-07-24T01:36:42;17.30;99.90
4058;DHT22;2044;48.692;9.020;2022-07-24T01:39:10;17.30;99.90
4058;DHT22;2044;48.692;9.020;2022-07-24T01:41:37;17.30;99.90
4058;DHT22;2044;48.692;9.020;2022-07-24T01:44:04;17.30;99.90
4058;DHT22;2044;48.692;9.020;2022-07-24T01:46:30;17.20;99.90
4058;DHT22;2044;48.692;9.020;2022-07-24T01:48:57;17.10;99.90
4058;DHT22;2044;48.692;9.020;2022-07-24T01:51:24;17.00;99.90
4058;DHT22;2044;48.692;9.020;2022-07-24T01:53:50;17.00;99.90
4058;DHT22;2044;48.692;9.020;2022-07-24T01:56:18;16.90;99.90
4058;DHT22;2044;48.692;9.020;2022-07-24T01:58:45;17.00;99.90
4058;DHT22;2044;48.692;9.020;2022-07-24T02:01:12;17.00;99.90
4058;DHT22;2044;48.692;9.020;2022-07-24T02:03:38;16.90;99.90
4058;DHT22;2044;48.692;9.020;2022-07-24T02:06:05;16.80;99.90
4058;DHT22;2044;48.692;9.020;2022-07-24T02:08:32;16.80;99.90
4058;DHT22;2044;48.692;9.020;2022-07-24T02:10:59;16.70;99.90
4058;DHT22;2044;48.692;9.020;2022-07-24T02:13:27;16.70;99.90
4058;DHT22;2044;48.692;9.020;2022-07-24T02:15:54;16.60;99.90
4058;DHT22;2044;48.692;9.020;2022-07-24T02:18:21;16.60;99.90
4058;DHT22;2044;48.692;9.020;2022-07-24T02:20:48;16.50;99.90
4058;DHT22;2044;48.692;9.020;2022-07-24T02:23:14;16.60;99.90
4058;DHT22;2044;48.692;9.020;2022-07-24T02:25:43;17.00;99.90
4058;DHT22;2044;48.692;9.020;2022-07-24T02:28:11;17.30;99.90
4058;DHT22;2044;48.692;9.020;2022-07-24T02:30:39;17.60;99.90
4058;DHT22;2044;48.692;9.020;2022-07-24T02:33:07;17.60;99.90
4058;DHT22;2044;48.692;9.020;2022-07-24T02:35:34;17.60;99.90
4058;DHT22;2044;48.692;9.020;2022-07-24T02:38:00;17.30;99.90
4058;DHT22;2044;48.692;9.020;2022-07-24T02:40:28;17.10;99.90
4058;DHT22;2044;48.692;9.020;2022-07-24T02:42:55;16.90;99.90
4058;DHT22;2044;48.692;9.020;2022-07-24T02:45:22;16.70;99.90
4058;DHT22;2044;48.692;9.020;2022-07-24T02:47:52;16.50;99.90
4058;DHT22;2044;48.692;9.020;2022-07-24T02:50:20;16.30;99.90
4058;DHT22;2044;48.692;9.020;2022-07-24T02:52:47;16.20;99.90
4058;DHT22;2044;48.692;9.020;2022-07-24T02:55:14;16.30;99.90
4058;DHT22;2044;48.692;9.020;2022-07-24T02:57:41;16.40;99.90
4058;DHT22;2044;48.692;9.020;2022-07-24T03:00:11;16.40;99.90
4058;DHT22;2044;48.692;9.020;2022-07-24T03:02:38;16.60;99.90
4058;DHT22;2044;48.692;9.020;2022-07-24T03:05:07;16.50;99.90
4058;DHT22;2044;48.692;9.020;2022-07-24T03:07:34;16.40;99.90
4058;DHT22;2044;48.692;9.020;2022-07-24T03:10:02;16.30;99.90
4058;DHT22;2044;48.692;9.020;2022-07-24T03:12:29;16.20;99.90
4058;DHT22;2044;48.692;9.020;2022-07-24T03:14:55;16.10;99.90
4058;DHT22;2044;48.692;9.020;2022-07-24T03:17:22;16.00;99.90
4058;DHT22;2044;48.692;9.020;2022-07-24T03:19:49;15.90;99.90
4058;DHT22;2044;48.692;9.020;2022-07-24T03:22:17;15.90;99.90
4058;DHT22;2044;48.692;9.020;2022-07-24T03:24:43;15.80;99.90
4058;DHT22;2044;48.692;9.020;2022-07-24T03:27:10;15.70;99.90
4058;DHT22;2044;48.692;9.020;2022-07-24T03:29:37;15.70;99.90
4058;DHT22;2044;48.692;9.020;2022-07-24T03:32:04;15.70;99.90
4058;DHT22;2044;48.692;9.020;2022-07-24T03:34:31;15.60;99.90
4058;DHT22;2044;48.692;9.020;2022-07-24T03:36:58;15.60;99.90
4058;DHT22;2044;48.692;9.020;2022-07-24T03:39:26;15.50;99.90
4058;DHT22;2044;48.692;9.020;2022-07-24T03:41:52;15.50;99.90
4058;DHT22;2044;48.692;9.020;2022-07-24T03:44:19;15.40;99.90
4058;DHT22;2044;48.692;9.020;2022-07-24T03:46:46;15.40;99.90
4058;DHT22;2044;48.692;9.020;2022-07-24T03:49:13;15.30;99.90
4058;DHT22;2044;48.692;9.020;2022-07-24T03:51:39;15.40;99.90
4058;DHT22;2044;48.692;9.020;2022-07-24T03:54:06;15.30;99.90
4058;DHT22;2044;48.692;9.020;2022-07-24T03:56:34;15.40;99.90
4058;DHT22;2044;48.692;9.020;2022-07-24T03:59:01;15.50;99.90
4058;DHT22;2044;48.692;9.020;2022-07-24T04:01:28;15.60;99.90
4058;DHT22;2044;48.692;9.020;2022-07-24T04:03:54;15.60;99.90
4058;DHT22;2044;48.692;9.020;2022-07-24T04:06:23;15.60;99.90
4058;DHT22;2044;48.692;9.020;2022-07-24T04:08:50;15.60;99.90
4058;DHT22;2044;48.692;9.020;2022-07-24T04:11:16;15.60;99.90
4058;DHT22;2044;48.692;9.020;2022-07-24T04:13:44;15.60;99.90
4058;DHT22;2044;48.692;9.020;2022-07-24T04:16:11;15.60;99.90
4058;DHT22;2044;48.692;9.020;2022-07-24T04:18:38;15.70;99.90
4058;DHT22;2044;48.692;9.020;2022-07-24T04:21:06;15.70;99.90
4058;DHT22;2044;48.692;9.020;2022-07-24T04:23:32;15.80;99.90
4058;DHT22;2044;48.692;9.020;2022-07-24T04:25:59;16.00;99.90
4058;DHT22;2044;48.692;9.020;2022-07-24T04:28:27;16.20;99.90
4058;DHT22;2044;48.692;9.020;2022-07-24T04:30:55;16.30;99.90
4058;DHT22;2044;48.692;9.020;2022-07-24T04:33:22;16.50;99.90
4058;DHT22;2044;48.692;9.020;2022-07-24T04:35:49;17.00;99.90
4058;DHT22;2044;48.692;9.020;2022-07-24T04:38:15;17.70;99.90
4058;DHT22;2044;48.692;9.020;2022-07-24T04:40:43;18.40;99.90
4058;DHT22;2044;48.692;9.020;2022-07-24T04:43:09;18.80;99.90
4058;DHT22;2044;48.692;9.020;2022-07-24T04:45:36;18.90;99.90
4058;DHT22;2044;48.692;9.020;2022-07-24T04:48:05;19.40;1.00
4058;DHT22;2044;48.692;9.020;2022-07-24T04:50:32;19.70;1.00
4058;DHT22;2044;48.692;9.020;2022-07-24T04:52:59;19.70;1.00
4058;DHT22;2044;48.692;9.020;2022-07-24T04:55:25;20.10;99.90
4058;DHT22;2044;48.692;9.020;2022-07-24T04:57:52;20.50;99.90
4058;DHT22;2044;48.692;9.020;2022-07-24T05:00:19;21.30;1.00
4058;DHT22;2044;48.692;9.020;2022-07-24T05:02:45;21.70;99.90
4058;DHT22;2044;48.692;9.020;2022-07-24T05:05:14;21.90;99.90
4058;DHT22;2044;48.692;9.020;2022-07-24T05:07:40;22.20;99.90
4058;DHT22;2044;48.692;9.020;2022-07-24T05:10:08;22.90;99.90
4058;DHT22;2044;48.692;9.020;2022-07-24T05:12:34;23.90;8.80
4058;DHT22;2044;48.692;9.020;2022-07-24T05:15:01;24.60;99.90
4058;DHT22;2044;48.692;9.020;2022-07-24T05:17:28;24.90;99.90
4058;DHT22;2044;48.692;9.020;2022-07-24T05:19:55;25.30;1.00
4058;DHT22;2044;48.692;9.020;2022-07-24T05:22:23;26.00;1.00
4058;DHT22;2044;48.692;9.020;2022-07-24T05:24:49;26.60;1.00
4058;DHT22;2044;48.692;9.020;2022-07-24T05:27:16;27.50;1.00
4058;DHT22;2044;48.692;9.020;2022-07-24T05:29:43;27.80;99.90
4058;DHT22;2044;48.692;9.020;2022-07-24T05:32:11;27.20;99.90
4058;DHT22;2044;48.692;9.020;2022-07-24T05:34:38;27.40;99.90
4058;DHT22;2044;48.692;9.020;2022-07-24T05:37:05;27.80;99.90
4058;DHT22;2044;48.692;9.020;2022-07-24T05:39:33;28.40;99.90
4058;DHT22;2044;48.692;9.020;2022-07-24T05:42:00;28.70;99.90
4058;DHT22;2044;48.692;9.020;2022-07-24T05:44:27;29.40;99.90
4058;DHT22;2044;48.692;9.020;2022-07-24T05:46:53;30.10;99.90
4058;DHT22;2044;48.692;9.020;2022-07-24T05:49:20;30.50;99.90
4058;DHT22;2044;48.692;9.020;2022-07-24T05:51:47;29.70;99.90
4058;DHT22;2044;48.692;9.020;2022-07-24T05:54:13;28.40;99.90
4058;DHT22;2044;48.692;9.020;2022-07-24T05:56:41;27.10;99.90
4058;DHT22;2044;48.692;9.020;2022-07-24T05:59:08;25.70;99.90
4058;DHT22;2044;48.692;9.020;2022-07-24T06:01:35;26.20;1.00
4058;DHT22;2044;48.692;9.020;2022-07-24T06:04:01;26.60;99.90
4058;DHT22;2044;48.692;9.020;2022-07-24T06:06:28;28.00;99.90
4058;DHT22;2044;48.692;9.020;2022-07-24T06:08:55;29.00;99.90
4058;DHT22;2044;48.692;9.020;2022-07-24T06:11:21;27.90;99.90
4058;DHT22;2044;48.692;9.020;2022-07-24T06:13:50;27.90;99.90
4058;DHT22;2044;48.692;9.020;2022-07-24T06:16:17;28.20;99.90
4058;DHT22;2044;48.692;9.020;2022-07-24T06:18:44;30.30;99.90
4058;DHT22;2044;48.692;9.020;2022-07-24T06:21:10;31.30;99.90
4058;DHT22;2044;48.692;9.020;2022-07-24T06:23:37;31.90;99.90
4058;DHT22;2044;48.692;9.020;2022-07-24T06:26:04;32.10;99.90
4058;DHT22;2044;48.692;9.020;2022-07-24T06:28:31;33.50;99.90
4058;DHT22;2044;48.692;9.020;2022-07-24T06:30:59;32.40;99.90
4058;DHT22;2044;48.692;9.020;2022-07-24T06:33:26;31.70;99.90
4058;DHT22;2044;48.692;9.020;2022-07-24T06:35:52;31.90;99.90
4058;DHT22;2044;48.692;9.020;2022-07-24T06:38:19;31.50;99.90
4058;DHT22;2044;48.692;9.020;2022-07-24T06:40:46;32.80;99.90
4058;DHT22;2044;48.692;9.020;2022-07-24T06:43:13;33.40;99.90
4058;DHT22;2044;48.692;9.020;2022-07-24T06:45:39;33.90;99.90
4058;DHT22;2044;48.692;9.020;2022-07-24T06:48:09;34.40;99.90
4058;DHT22;2044;48.692;9.020;2022-07-24T06:50:36;34.90;99.90
4058;DHT22;2044;48.692;9.020;2022-07-24T06:53:03;32.90;99.90
4058;DHT22;2044;48.692;9.020;2022-07-24T06:55:30;32.80;99.90
4058;DHT22;2044;48.692;9.020;2022-07-24T06:57:56;33.80;99.90
4058;DHT22;2044;48.692;9.020;2022-07-24T07:00:23;33.60;99.90
4058;DHT22;2044;48.692;9.020;2022-07-24T07:02:50;32.80;99.90
4058;DHT22;2044;48.692;9.020;2022-07-24T07:05:18;31.80;99.90
4058;DHT22;2044;48.692;9.020;2022-07-24T07:07:44;32.80;99.90
4058;DHT22;2044;48.692;9.020;2022-07-24T07:10:11;33.50;99.90
4058;DHT22;2044;48.692;9.020;2022-07-24T07:12:38;33.50;99.90
4058;DHT22;2044;48.692;9.020;2022-07-24T07:15:05;31.90;99.90
4058;DHT22;2044;48.692;9.020;2022-07-24T07:17:32;32.00;99.90
4058;DHT22;2044;48.692;9.020;2022-07-24T07:19:59;33.40;99.90
4058;DHT22;2044;48.692;9.020;2022-07-24T07:22:27;31.60;99.90
4058;DHT22;2044;48.692;9.020;2022-07-24T07:24:54;30.90;99.90
4058;DHT22;2044;48.692;9.020;2022-07-24T07:27:20;31.70;99.90
4058;DHT22;2044;48.692;9.020;2022-07-24T07:29:47;34.80;99.90
4058;DHT22;2044;48.692;9.020;2022-07-24T07:32:14;35.50;99.90
4058;DHT22;2044;48.692;9.020;2022-07-24T07:34:41;35.90;99.90
4058;DHT22;2044;48.692;9.020;2022-07-24T07:37:07;36.90;99.90
4058;DHT22;2044;48.692;9.020;2022-07-24T07:39:35;38.10;99.90
4058;DHT22;2044;48.692;9.020;2022-07-24T07:42:02;34.50;99.90
4058;DHT22;2044;48.692;9.020;2022-07-24T07:44:29;32.50;99.90
4058;DHT22;2044;48.692;9.020;2022-07-24T07:46:56;35.20;99.90
4058;DHT22;2044;48.692;9.020;2022-07-24T07:49:22;34.80;99.90
4058;DHT22;2044;48.692;9.020;2022-07-24T07:51:49;33.90;99.90
4058;DHT22;2044;48.692;9.020;2022-07-24T07:54:17;32.30;99.90
4058;DHT22;2044;48.692;9.020;2022-07-24T07:56:46;32.70;99.90
4058;DHT22;2044;48.692;9.020;2022-07-24T07:59:13;35.60;99.90
4058;DHT22;2044;48.692;9.020;2022-07-24T08:01:40;38.00;99.90
4058;DHT22;2044;48.692;9.020;2022-07-24T08:04:06;36.70;99.90
4058;DHT22;2044;48.692;9.020;2022-07-24T08:06:33;33.80;99.90
4058;DHT22;2044;48.692;9.020;2022-07-24T08:09:00;31.80;99.90
4058;DHT22;2044;48.692;9.020;2022-07-24T08:11:26;33.10;99.90
4058;DHT22;2044;48.692;9.020;2022-07-24T08:13:55;36.90;99.90
4058;DHT22;2044;48.692;9.020;2022-07-24T08:16:22;39.60;99.90
4058;DHT22;2044;48.692;9.020;2022-07-24T08:18:49;38.10;99.90
4058;DHT22;2044;48.692;9.020;2022-07-24T08:21:16;38.60;99.90
4058;DHT22;2044;48.692;9.020;2022-07-24T08:23:43;36.80;99.60
4058;DHT22;2044;48.692;9.020;2022-07-24T08:26:10;36.80;99.40
4058;DHT22;2044;48.692;9.020;2022-07-24T08:28:37;37.50;99.90
4058;DHT22;2044;48.692;9.020;2022-07-24T08:31:05;37.80;99.40
4058;DHT22;2044;48.692;9.020;2022-07-24T08:33:32;38.70;98.90
4058;DHT22;2044;48.692;9.020;2022-07-24T08:35:59;35.80;94.90
4058;DHT22;2044;48.692;9.020;2022-07-24T08:38:26;34.20;99.90
4058;DHT22;2044;48.692;9.020;2022-07-24T08:40:53;32.80;97.90
4058;DHT22;2044;48.692;9.020;2022-07-24T08:43:22;33.40;99.00
4058;DHT22;2044;48.692;9.020;2022-07-24T08:45:49;31.80;98.20
4058;DHT22;2044;48.692;9.020;2022-07-24T08:48:21;31.60;99.90
4058;DHT22;2044;48.692;9.020;2022-07-24T08:50:49;32.90;99.00
4058;DHT22;2044;48.692;9.020;2022-07-24T08:53:19;32.50;99.10
4058;DHT22;2044;48.692;9.020;2022-07-24T08:55:46;32.90;98.70
4058;DHT22;2044;48.692;9.020;2022-07-24T08:58:13;33.40;99.30
4058;DHT22;2044;48.692;9.020;2022-07-24T09:00:39;33.40;97.40
4058;DHT22;2044;48.692;9.020;2022-07-24T09:03:06;34.80;98.80
4058;DHT22;2044;48.692;9.020;2022-07-24T09:05:52;37.10;99.00
4058;DHT22;2044;48.692;9.020;2022-07-24T09:08:18;37.40;95.70
4058;DHT22;2044;48.692;9.020;2022-07-24T09:10:53;37.50;93.50
4058;DHT22;2044;48.692;9.020;2022-07-24T09:13:20;37.30;93.20
4058;DHT22;2044;48.692;9.020;2022-07-24T09:15:50;37.00;91.70
4058;DHT22;2044;48.692;9.020;2022-07-24T09:18:28;35.20;90.20
4058;DHT22;2044;48.692;9.020;2022-07-24T09:20:56;33.50;90.60
4058;DHT22;2044;48.692;9.020;2022-07-24T09:23:23;32.40;92.10
4058;DHT22;2044;48.692;9.020;2022-07-24T09:25:51;33.50;92.80
4058;DHT22;2044;48.692;9.020;2022-07-24T09:28:18;35.00;94.10
4058;DHT22;2044;48.692;9.020;2022-07-24T09:30:46;35.10;93.90
4058;DHT22;2044;48.692;9.020;2022-07-24T09:33:16;36.20;94.10
4058;DHT22;2044;48.692;9.020;2022-07-24T09:35:45;35.00;93.70
4058;DHT22;2044;48.692;9.020;2022-07-24T09:38:15;36.70;95.90
4058;DHT22;2044;48.692;9.020;2022-07-24T09:40:44;38.10;94.40
4058;DHT22;2044;48.692;9.020;2022-07-24T09:43:21;35.50;86.90
4058;DHT22;2044;48.692;9.020;2022-07-24T09:46:06;34.10;87.40
4058;DHT22;2044;48.692;9.020;2022-07-24T09:48:34;33.00;91.00
4058;DHT22;2044;48.692;9.020;2022-07-24T09:51:04;33.70;91.60
4058;DHT22;2044;48.692;9.020;2022-07-24T09:53:33;33.70;92.00
4058;DHT22;2044;48.692;9.020;2022-07-24T09:56:03;34.10;92.00
4058;DHT22;2044;48.692;9.020;2022-07-24T09:58:32;33.10;94.90
4058;DHT22;2044;48.692;9.020;2022-07-24T10:01:00;32.50;91.10
4058;DHT22;2044;48.692;9.020;2022-07-24T10:03:29;32.60;92.10
4058;DHT22;2044;48.692;9.020;2022-07-24T10:05:57;32.40;91.60
4058;DHT22;2044;48.692;9.020;2022-07-24T10:08:25;32.90;91.80
4058;DHT22;2044;48.692;9.020;2022-07-24T10:10:54;34.00;94.50
4058;DHT22;2044;48.692;9.020;2022-07-24T10:13:21;33.80;91.20
4058;DHT22;2044;48.692;9.020;2022-07-24T10:15:57;34.00;91.20
4058;DHT22;2044;48.692;9.020;2022-07-24T10:18:36;33.90;90.80
4058;DHT22;2044;48.692;9.020;2022-07-24T10:21:08;34.70;91.90
4058;DHT22;2044;48.692;9.020;2022-07-24T10:26:34;33.00;90.10
4058;DHT22;2044;48.692;9.020;2022-07-24T10:29:06;33.50;91.10
4058;DHT22;2044;48.692;9.020;2022-07-24T10:31:34;35.00;94.00
4058;DHT22;2044;48.692;9.020;2022-07-24T10:34:05;36.80;94.00
4058;DHT22;2044;48.692;9.020;2022-07-24T10:36:40;38.00;93.50
4058;DHT22;2044;48.692;9.020;2022-07-24T10:39:13;37.00;86.30
4058;DHT22;2044;48.692;9.020;2022-07-24T10:41:41;35.70;90.10
4058;DHT22;2044;48.692;9.020;2022-07-24T10:44:15;35.70;90.50
4058;DHT22;2044;48.692;9.020;2022-07-24T10:46:59;36.70;91.80
4058;DHT22;2044;48.692;9.020;2022-07-24T10:49:50;36.90;90.50
4058;DHT22;2044;48.692;9.020;2022-07-24T10:52:24;37.30;90.20
4058;DHT22;2044;48.692;9.020;2022-07-24T10:55:20;37.70;90.70
4058;DHT22;2044;48.692;9.020;2022-07-24T10:57:54;38.20;90.10
4058;DHT22;2044;48.692;9.020;2022-07-24T11:00:22;38.20;86.60
4058;DHT22;2044;48.692;9.020;2022-07-24T11:02:56;38.10;87.80
4058;DHT22;2044;48.692;9.020;2022-07-24T11:05:29;38.10;86.60
4058;DHT22;2044;48.692;9.020;2022-07-24T11:11:05;36.90;78.40
4058;DHT22;2044;48.692;9.020;2022-07-24T11:13:41;35.90;82.50
4058;DHT22;2044;48.692;9.020;2022-07-24T11:19:27;35.10;83.40
4058;DHT22;2044;48.692;9.020;2022-07-24T11:22:09;35.80;85.40
4058;DHT22;2044;48.692;9.020;2022-07-24T11:24:40;37.20;84.60
4058;DHT22;2044;48.692;9.020;2022-07-24T11:27:14;37.20;79.90
4058;DHT22;2044;48.692;9.020;2022-07-24T11:29:43;35.60;73.60
4058;DHT22;2044;48.692;9.020;2022-07-24T11:32:11;33.80;76.10
4058;DHT22;2044;48.692;9.020;2022-07-24T11:34:44;34.70;82.30
4058;DHT22;2044;48.692;9.020;2022-07-24T11:37:11;34.00;75.20
4058;DHT22;2044;48.692;9.020;2022-07-24T11:39:39;32.40;76.50
4058;DHT22;2044;48.692;9.020;2022-07-24T11:42:07;33.10;84.70
4058;DHT22;2044;48.692;9.020;2022-07-24T11:44:36;34.20;83.90
4058;DHT22;2044;48.692;9.020;2022-07-24T11:47:09;34.80;83.20
4058;DHT22;2044;48.692;9.020;2022-07-24T11:49:40;35.30;80.40
4058;DHT22;2044;48.692;9.020;2022-07-24T11:52:07;35.30;78.20
4058;DHT22;2044;48.692;9.020;2022-07-24T11:54:34;35.80;78.70
4058;DHT22;2044;48.692;9.020;2022-07-24T11:57:01;34.70;75.00
4058;DHT22;2044;48.692;9.020;2022-07-24T11:59:29;35.70;79.10
4058;DHT22;2044;48.692;9.020;2022-07-24T12:02:03;35.30;73.10
4058;DHT22;2044;48.692;9.020;2022-07-24T12:04:32;34.50;71.20
4058;DHT22;2044;48.692;9.020;2022-07-24T12:06:59;33.40;71.40
4058;DHT22;2044;48.692;9.020;2022-07-24T12:09:26;35.10;80.30
4058;DHT22;2044;48.692;9.020;2022-07-24T12:11:53;36.80;82.30
4058;DHT22;2044;48.692;9.020;2022-07-24T12:14:20;37.50;79.10
4058;DHT22;2044;48.692;9.020;2022-07-24T12:16:52;37.00;72.70
4058;DHT22;2044;48.692;9.020;2022-07-24T12:19:20;36.50;71.90
4058;DHT22;2044;48.692;9.020;2022-07-24T12:21:50;35.00;67.20
4058;DHT22;2044;48.692;9.020;2022-07-24T12:24:18;34.80;70.30
4058;DHT22;2044;48.692;9.020;2022-07-24T12:26:52;34.90;68.90
4058;DHT22;2044;48.692;9.020;2022-07-24T12:29:20;34.70;68.80
4058;DHT22;2044;48.692;9.020;2022-07-24T12:31:47;33.90;67.90
4058;DHT22;2044;48.692;9.020;2022-07-24T12:34:15;34.10;68.00
4058;DHT22;2044;48.692;9.020;2022-07-24T12:36:42;34.70;69.20
4058;DHT22;2044;48.692;9.020;2022-07-24T12:39:11;34.10;63.40
4058;DHT22;2044;48.692;9.020;2022-07-24T12:41:43;32.50;59.90
4058;DHT22;2044;48.692;9.020;2022-07-24T12:44:10;32.30;64.20
4058;DHT22;2044;48.692;9.020;2022-07-24T12:46:38;32.20;85.30
4058;DHT22;2044;48.692;9.020;2022-07-24T12:49:06;32.20;64.90
4058;DHT22;2044;48.692;9.020;2022-07-24T12:51:47;32.10;64.70
4058;DHT22;2044;48.692;9.020;2022-07-24T12:54:17;32.20;65.00
4058;DHT22;2044;48.692;9.020;2022-07-24T12:56:45;32.00;66.20
4058;DHT22;2044;48.692;9.020;2022-07-24T12:59:25;32.70;71.60
4058;DHT22;2044;48.692;9.020;2022-07-24T13:01:54;33.40;71.10
4058;DHT22;2044;48.692;9.020;2022-07-24T13:04:23;34.20;72.10
4058;DHT22;2044;48.692;9.020;2022-07-24T13:06:52;35.30;71.30
4058;DHT22;2044;48.692;9.020;2022-07-24T13:09:24;35.50;73.20
4058;DHT22;2044;48.692;9.020;2022-07-24T13:11:52;36.10;71.90
4058;DHT22;2044;48.692;9.020;2022-07-24T13:14:20;36.10;91.80
4058;DHT22;2044;48.692;9.020;2022-07-24T13:16:49;37.10;72.20
4058;DHT22;2044;48.692;9.020;2022-07-24T13:19:17;37.70;71.60
4058;DHT22;2044;48.692;9.020;2022-07-24T13:21:44;38.30;70.90
4058;DHT22;2044;48.692;9.020;2022-07-24T13:24:13;38.20;67.90
4058;DHT22;2044;48.692;9.020;2022-07-24T13:26:42;37.80;66.20
4058;DHT22;2044;48.692;9.020;2022-07-24T13:29:09;37.60;66.60
4058;DHT22;2044;48.692;9.020;2022-07-24T13:31:37;38.40;67.30
4058;DHT22;2044;48.692;9.020;2022-07-24T13:34:04;38.40;67.20
4058;DHT22;2044;48.692;9.020;2022-07-24T13:36:32;39.50;65.60
4058;DHT22;2044;48.692;9.020;2022-07-24T13:38:59;39.20;63.40
4058;DHT22;2044;48.692;9.020;2022-07-24T13:41:25;39.10;58.60
4058;DHT22;2044;48.692;9.020;2022-07-24T13:43:54;38.10;56.20
4058;DHT22;2044;48.692;9.020;2022-07-24T13:46:21;37.20;52.80
4058;DHT22;2044;48.692;9.020;2022-07-24T13:48:48;35.10;48.40
4058;DHT22;2044;48.692;9.020;2022-07-24T13:51:14;34.80;49.40
4058;DHT22;2044;48.692;9.020;2022-07-24T13:53:41;34.30;49.40
4058;DHT22;2044;48.692;9.020;2022-07-24T13:56:09;34.10;49.90
4058;DHT22;2044;48.692;9.020;2022-07-24T13:58:35;33.60;51.60
4058;DHT22;2044;48.692;9.020;2022-07-24T14:01:05;34.10;50.70
4058;DHT22;2044;48.692;9.020;2022-07-24T14:03:32;32.60;48.70
4058;DHT22;2044;48.692;9.020;2022-07-24T14:06:00;32.90;52.50
4058;DHT22;2044;48.692;9.020;2022-07-24T14:08:27;33.50;52.50
4058;DHT22;2044;48.692;9.020;2022-07-24T14:10:54;34.50;54.70
4058;DHT22;2044;48.692;9.020;2022-07-24T14:13:21;34.70;52.20
4058;DHT22;2044;48.692;9.020;2022-07-24T14:15:48;34.50;52.80
4058;DHT22;2044;48.692;9.020;2022-07-24T14:18:16;34.70;54.40
4058;DHT22;2044;48.692;9.020;2022-07-24T14:20:43;33.40;50.70
4058;DHT22;2044;48.692;9.020;2022-07-24T14:23:09;33.30;52.10
4058;DHT22;2044;48.692;9.020;2022-07-24T14:25:36;33.30;52.60
4058;DHT22;2044;48.692;9.020;2022-07-24T14:28:03;33.10;51.70
4058;DHT22;2044;48.692;9.020;2022-07-24T14:30:30;33.90;54.50
4058;DHT22;2044;48.692;9.020;2022-07-24T14:32:57;35.30;55.10
4058;DHT22;2044;48.692;9.020;2022-07-24T14:35:25;36.60;54.70
4058;DHT22;2044;48.692;9.020;2022-07-24T14:37:52;35.70;51.60
4058;DHT22;2044;48.692;9.020;2022-07-24T14:40:19;34.30;47.30
4058;DHT22;2044;48.692;9.020;2022-07-24T14:42:46;34.10;50.80
4058;DHT22;2044;48.692;9.020;2022-07-24T14:45:13;33.40;47.20
4058;DHT22;2044;48.692;9.020;2022-07-24T14:47:39;34.50;49.20
4058;DHT22;2044;48.692;9.020;2022-07-24T14:50:07;35.60;51.20
4058;DHT22;2044;48.692;9.020;2022-07-24T14:52:36;36.20;50.10
4058;DHT22;2044;48.692;9.020;2022-07-24T14:55:04;35.30;46.40
4058;DHT22;2044;48.692;9.020;2022-07-24T14:57:32;35.20;46.40
4058;DHT22;2044;48.692;9.020;2022-07-24T14:59:58;34.70;46.30
4058;DHT22;2044;48.692;9.020;2022-07-24T15:02:25;34.10;44.60
4058;DHT22;2044;48.692;9.020;2022-07-24T15:04:52;34.50;47.50
4058;DHT22;2044;48.692;9.020;2022-07-24T15:07:19;34.40;45.50
4058;DHT22;2044;48.692;9.020;2022-07-24T15:09:47;34.70;47.10
4058;DHT22;2044;48.692;9.020;2022-07-24T15:12:13;34.20;45.20
4058;DHT22;2044;48.692;9.020;2022-07-24T15:14:40;34.60;48.30
4058;DHT22;2044;48.692;9.020;2022-07-24T15:17:07;34.60;46.40
4058;DHT22;2044;48.692;9.020;2022-07-24T15:19:33;34.10;45.50
4058;DHT22;2044;48.692;9.020;2022-07-24T15:22:00;33.40;46.00
4058;DHT22;2044;48.692;9.020;2022-07-24T15:24:27;34.40;48.40
4058;DHT22;2044;48.692;9.020;2022-07-24T15:26:55;33.90;45.70
4058;DHT22;2044;48.692;9.020;2022-07-24T15:29:21;32.90;44.80
4058;DHT22;2044;48.692;9.020;2022-07-24T15:31:48;32.40;45.90
4058;DHT22;2044;48.692;9.020;2022-07-24T15:34:15;33.40;50.90
4058;DHT22;2044;48.692;9.020;2022-07-24T15:36:42;34.50;52.30
4058;DHT22;2044;48.692;9.020;2022-07-24T15:39:09;35.30;49.40
4058;DHT22;2044;48.692;9.020;2022-07-24T15:41:37;35.10;48.80
4058;DHT22;2044;48.692;9.020;2022-07-24T15:44:05;35.00;47.30
4058;DHT22;2044;48.692;9.020;2022-07-24T15:46:32;33.90;44.40
4058;DHT22;2044;48.692;9.020;2022-07-24T15:48:59;33.80;46.20
4058;DHT22;2044;48.692;9.020;2022-07-24T15:51:25;34.20;47.80
4058;DHT22;2044;48.692;9.020;2022-07-24T15:53:52;33.10;43.60
4058;DHT22;2044;48.692;9.020;2022-07-24T15:56:19;33.10;45.30
4058;DHT22;2044;48.692;9.020;2022-07-24T15:58:45;33.00;46.60
4058;DHT22;2044;48.692;9.020;2022-07-24T16:01:13;33.10;46.00
4058;DHT22;2044;48.692;9.020;2022-07-24T16:03:40;32.90;44.30
4058;DHT22;2044;48.692;9.020;2022-07-24T16:06:07;32.50;45.90
4058;DHT22;2044;48.692;9.020;2022-07-24T16:08:34;33.00;45.80
4058;DHT22;2044;48.692;9.020;2022-07-24T16:11:00;32.90;45.10
4058;DHT22;2044;48.692;9.020;2022-07-24T16:13:27;33.30;45.80
4058;DHT22;2044;48.692;9.020;2022-07-24T16:15:55;34.30;48.50